Accueil
METAR-TAF:

METAR-TAF

Aéroports :

Buochs, Suisse

latitude: 46-58-28N, longitude: 8-23-49E, altitude: 449 m

Observation

Le bulletin a été fait il y a 25 minutes, à 13:50 UTC
Vent 3 kt de est, variant entre nord-est et sud-est
Température 13°C
Humidité 38%
Pression 1001 hPa
Visibilité 10 km ou plus
Quelques nuages à une hauteur de 13000 ft

METAR: LSZC 291350Z AUTO 08003KT 050V130 9999 FEW130 13/M01 Q1001

Heure: 15:15 (14:15 UTC)

Prévision

Le bulletin a été fait il y a 23 heures et 50 minutes, à 14:25 UTC
Prévision valable du 28 à 15 UTC au 28 à 24 UTC
Vent 5 kt de est/nord-est
Visibilité 10 km ou plus
pas de nuages en-dessous de 1500 mètres et pas de cumulonimbus.
Evoluant progressivement
du 28 à 15 UTC au 28 à 17 UTC
Visibilité 10 km ou plus
Nuages fragmentés à une hauteur de 10000 ft

TAF: LSZC 281425Z 2815/2824 06005KT CAVOK BECMG 2815/2817 9999 BKN100

Observations et prévisions météorologiques de plus de 4000 aéroports (messages METAR et TAF).

Les stations disponibles sont représentées par des disques jaunes et rouges sur la carte.

Passer la souris dessus pour voir le nom de la station.

Cliquer dessus pour voir les observations et prévisions météorologiques.

Pour changer de carte: cliquez sur les boutons verts avec une croix noire pour zoomer, sur le bouton vert avec un tiret pour effectuer un zoom arrière, ou sur les flèches vertes pour les cartes adjacentes.


METAR-TAF: